Time;durP1;ratioP1;P1;durP2;ratioP2;P2;SDS_P1;SDS_P2;PMS_P1;PMS_P2;Temp;Humidity;BMP_temperature;BMP_pressure;BME280_temperature;BME280_humidity;BME280_pressure;Samples;Min_cycle;Max_cycle;Signal;HPM_P1;HPM_P2
2024/01/09 00:02:21;;;;;;;3.17;2.20;;;-3.40;99.90;;;;;;4996540;28;20659;-63
2024/01/09 00:04:48;;;;;;;3.03;2.00;;;-3.40;99.90;;;;;;4986240;28;20762;-62
2024/01/09 00:07:16;;;;;;;3.40;2.20;;;-3.60;99.90;;;;;;4986396;28;20663;-63
2024/01/09 00:09:43;;;;;;;2.20;1.73;;;-3.60;99.90;;;;;;4996081;28;20762;-62
2024/01/09 00:12:10;;;;;;;4.57;1.97;;;-3.60;99.90;;;;;;4987863;28;20198;-62
2024/01/09 00:14:37;;;;;;;7.20;1.90;;;-3.60;99.90;;;;;;4987823;28;20285;-62
2024/01/09 00:17:04;;;;;;;2.23;1.70;;;-3.60;99.90;;;;;;4965520;28;20232;-62
2024/01/09 00:19:31;;;;;;;4.90;2.50;;;-3.60;99.90;;;;;;4995845;28;20577;-62
2024/01/09 00:21:57;;;;;;;5.90;2.00;;;-3.60;99.90;;;;;;4978629;28;20256;-62
2024/01/09 00:24:26;;;;;;;2.43;1.83;;;-3.60;99.90;;;;;;4992126;28;20202;-62
2024/01/09 00:26:52;;;;;;;2.00;1.60;;;-3.60;99.90;;;;;;4980224;28;20215;-62
2024/01/09 00:29:19;;;;;;;1.93;1.53;;;-3.60;99.90;;;;;;4996071;28;20197;-62
2024/01/09 00:31:46;;;;;;;3.87;2.17;;;-3.60;99.90;;;;;;4961205;28;20221;-62
2024/01/09 00:34:13;;;;;;;5.57;2.10;;;-3.60;99.90;;;;;;4999761;28;20285;-63
2024/01/09 00:36:44;;;;;;;3.57;2.00;;;-3.60;99.90;;;;;;4983104;28;20519;-62
2024/01/09 00:39:11;;;;;;;2.67;1.77;;;-3.50;99.90;;;;;;4993649;28;20291;-62
2024/01/09 00:41:39;;;;;;;4.90;2.10;;;-3.60;99.90;;;;;;4974584;28;20974;-62
2024/01/09 00:44:06;;;;;;;1.50;1.13;;;-3.70;99.90;;;;;;4994973;28;20195;-62
2024/01/09 00:46:32;;;;;;;3.10;1.80;;;-3.60;99.90;;;;;;4992266;28;20315;-62
2024/01/09 00:48:59;;;;;;;2.90;1.87;;;-3.60;99.90;;;;;;4959813;28;20443;-62
2024/01/09 00:51:26;;;;;;;4.13;1.73;;;-3.50;99.90;;;;;;4984680;28;20229;-62
2024/01/09 00:53:54;;;;;;;3.73;1.80;;;-3.50;99.90;;;;;;4994760;28;20202;-62
2024/01/09 00:56:22;;;;;;;3.10;2.13;;;-3.70;99.90;;;;;;4978848;28;20202;-62
2024/01/09 00:58:50;;;;;;;2.40;1.83;;;-3.70;99.90;;;;;;4993359;28;20241;-62
2024/01/09 01:01:17;;;;;;;3.13;2.00;;;-3.60;99.90;;;;;;4978140;28;20230;-62
2024/01/09 01:03:44;;;;;;;3.10;1.43;;;-3.60;99.90;;;;;;4964755;28;20436;-62
2024/01/09 01:06:11;;;;;;;2.80;1.77;;;-3.60;99.90;;;;;;4994265;28;20198;-62
2024/01/09 01:08:38;;;;;;;4.43;2.03;;;-3.60;99.90;;;;;;4985412;28;20542;-62
2024/01/09 01:11:06;;;;;;;3.57;1.83;;;-3.60;99.90;;;;;;4993031;28;20202;-62
2024/01/09 01:13:33;;;;;;;4.83;1.90;;;-3.60;99.90;;;;;;4984858;28;20702;-62
2024/01/09 01:16:01;;;;;;;3.67;1.90;;;-3.60;99.90;;;;;;4994339;28;20212;-62
2024/01/09 01:18:28;;;;;;;4.93;1.93;;;-3.60;99.90;;;;;;4960264;28;20210;-62
2024/01/09 01:20:55;;;;;;;4.83;1.70;;;-3.60;99.90;;;;;;4988052;28;20202;-62
2024/01/09 01:23:22;;;;;;;2.23;1.80;;;-3.50;99.90;;;;;;4990266;28;20215;-62
2024/01/09 01:25:49;;;;;;;4.93;1.80;;;-3.50;99.90;;;;;;4989809;28;20210;-62
2024/01/09 01:28:15;;;;;;;4.50;1.80;;;-3.50;99.90;;;;;;4977279;28;20202;-63
2024/01/09 01:30:42;;;;;;;5.53;1.97;;;-2.80;99.90;;;;;;4999951;28;20433;-63
2024/01/09 01:33:11;;;;;;;5.00;2.07;;;-3.50;99.90;;;;;;4995531;28;20618;-62
2024/01/09 01:35:37;;;;;;;2.93;1.90;;;-3.80;99.90;;;;;;4976960;28;20653;-64
2024/01/09 01:38:04;;;;;;;2.23;1.60;;;-3.30;99.90;;;;;;4987783;28;20232;-62
2024/01/09 01:40:31;;;;;;;2.37;1.70;;;-3.50;99.90;;;;;;4982146;28;20382;-62
2024/01/09 01:42:58;;;;;;;2.37;1.83;;;-3.40;99.90;;;;;;4975871;28;20244;-62
2024/01/09 01:45:25;;;;;;;2.27;1.53;;;-3.50;99.90;;;;;;4996020;28;20780;-62
2024/01/09 01:47:53;;;;;;;4.07;1.83;;;-3.50;99.90;;;;;;4999700;28;20547;-62
2024/01/09 01:50:22;;;;;;;5.03;1.70;;;-3.50;99.90;;;;;;4963734;28;20202;-62
2024/01/09 01:52:49;;;;;;;5.90;2.40;;;-3.50;99.90;;;;;;4994778;28;20202;-62
2024/01/09 01:55:19;;;;;;;1.57;1.47;;;-3.50;99.90;;;;;;4990175;28;20211;-62
2024/01/09 01:57:49;;;;;;;4.70;1.63;;;-3.50;99.90;;;;;;4972688;28;20574;-62
2024/01/09 02:00:17;;;;;;;3.43;1.80;;;-3.50;99.90;;;;;;5000514;28;20198;-62
2024/01/09 02:02:47;;;;;;;3.23;2.27;;;-3.60;99.90;;;;;;4993392;28;20244;-62
2024/01/09 02:05:14;;;;;;;3.43;2.00;;;-3.60;99.90;;;;;;4954350;28;20211;-62
2024/01/09 02:07:46;;;;;;;3.37;2.00;;;-3.60;99.90;;;;;;4989699;28;20207;-62
2024/01/09 02:10:13;;;;;;;2.20;1.73;;;-3.70;99.90;;;;;;4983240;28;20338;-62
2024/01/09 02:12:40;;;;;;;2.10;1.90;;;-3.80;99.90;;;;;;4984210;28;20229;-62
2024/01/09 02:15:08;;;;;;;2.47;1.67;;;-3.70;99.90;;;;;;4984110;28;20226;-62
2024/01/09 02:17:36;;;;;;;2.60;2.00;;;-3.70;99.90;;;;;;4994539;28;20647;-62
2024/01/09 02:20:03;;;;;;;6.23;2.30;;;-3.90;99.90;;;;;;4986827;28;20550;-62
2024/01/09 02:22:30;;;;;;;2.47;1.73;;;-3.80;99.90;;;;;;4951480;28;20811;-62
2024/01/09 02:24:58;;;;;;;2.73;1.73;;;-3.70;99.90;;;;;;4980232;28;20194;-62
2024/01/09 02:27:31;;;;;;;3.30;2.07;;;-3.80;99.90;;;;;;4992663;28;20432;-62
2024/01/09 02:30:01;;;;;;;2.87;1.40;;;-3.80;99.90;;;;;;4980810;28;20221;-63
2024/01/09 02:32:28;;;;;;;2.07;1.63;;;-3.80;99.90;;;;;;4995708;28;20681;-62
2024/01/09 02:34:55;;;;;;;3.93;2.20;;;-3.90;99.90;;;;;;4983334;28;20207;-62
2024/01/09 02:37:22;;;;;;;3.03;1.80;;;-3.90;99.90;;;;;;4956700;28;20215;-62
2024/01/09 02:39:48;;;;;;;8.90;2.00;;;-4.10;99.90;;;;;;4985559;28;20673;-62
2024/01/09 02:42:15;;;;;;;1.90;1.60;;;-4.00;99.90;;;;;;4985026;28;20456;-62
2024/01/09 02:44:42;;;;;;;4.23;1.87;;;-4.00;99.90;;;;;;4982893;28;20210;-62
2024/01/09 02:47:10;;;;;;;4.20;1.93;;;-4.80;99.90;;;;;;4990005;28;20687;-62
2024/01/09 02:49:37;;;;;;;3.67;2.30;;;-4.00;99.90;;;;;;4986574;28;20197;-62
2024/01/09 02:52:05;;;;;;;8.50;2.47;;;-3.90;99.90;;;;;;4962924;28;20204;-62
2024/01/09 02:54:32;;;;;;;4.07;1.90;;;-3.40;99.90;;;;;;4994175;28;20202;-62
2024/01/09 02:56:58;;;;;;;6.50;2.50;;;-2.10;99.90;;;;;;4978958;28;20231;-62
2024/01/09 02:59:26;;;;;;;5.27;2.40;;;-3.50;99.90;;;;;;4994434;28;20266;-62
2024/01/09 03:01:53;;;;;;;6.80;2.10;;;-4.00;99.90;;;;;;4986973;28;20804;-62
2024/01/09 03:04:21;;;;;;;2.43;1.93;;;-3.40;99.90;;;;;;4992136;28;20486;-62
2024/01/09 03:06:48;;;;;;;3.90;2.20;;;-4.00;99.90;;;;;;4991271;28;20199;-62
2024/01/09 03:09:16;;;;;;;5.80;1.77;;;-4.00;99.90;;;;;;4960262;28;20456;-62
2024/01/09 03:11:44;;;;;;;3.63;1.93;;;-4.00;99.90;;;;;;4982882;28;20201;-62
2024/01/09 03:14:11;;;;;;;3.77;1.77;;;-4.10;99.90;;;;;;4989337;28;20413;-62
2024/01/09 03:16:37;;;;;;;4.97;2.23;;;-3.70;99.90;;;;;;4984338;28;20205;-63
2024/01/09 03:19:05;;;;;;;4.07;2.00;;;-3.90;99.90;;;;;;4990871;28;20204;-62
2024/01/09 03:21:33;;;;;;;5.33;2.30;;;-3.90;99.90;;;;;;4997994;28;20237;-62
2024/01/09 03:24:00;;;;;;;3.87;2.37;;;-3.90;99.90;;;;;;4957568;28;20216;-62
2024/01/09 03:26:26;;;;;;;5.37;2.10;;;-3.80;99.90;;;;;;4981439;28;20497;-62
2024/01/09 03:28:53;;;;;;;2.80;1.77;;;-3.90;99.90;;;;;;4988618;28;20203;-62
2024/01/09 03:31:20;;;;;;;2.13;1.90;;;-4.00;99.90;;;;;;4988168;28;20200;-62
2024/01/09 03:33:47;;;;;;;1.50;1.40;;;-3.10;99.90;;;;;;4998727;28;20200;-62
2024/01/09 03:36:14;;;;;;;4.27;1.73;;;-4.00;99.90;;;;;;4996075;28;20202;-62
2024/01/09 03:38:43;;;;;;;5.60;2.57;;;-4.00;99.90;;;;;;4997816;28;20579;-62
2024/01/09 03:41:10;;;;;;;3.73;1.67;;;-5.60;99.90;;;;;;4948597;28;20412;-62
2024/01/09 03:43:37;;;;;;;4.73;2.00;;;-4.10;99.90;;;;;;4999370;28;20229;-62
2024/01/09 03:46:04;;;;;;;4.83;2.07;;;-4.10;99.90;;;;;;4986705;28;20989;-62
2024/01/09 03:48:31;;;;;;;3.40;1.83;;;-4.00;99.90;;;;;;4996396;28;20199;-62
2024/01/09 03:50:58;;;;;;;3.83;2.13;;;-4.00;99.90;;;;;;4997176;28;20207;-62
2024/01/09 03:53:24;;;;;;;3.13;1.80;;;-3.90;99.90;;;;;;5000225;28;20614;-62
2024/01/09 03:55:53;;;;;;;4.23;2.13;;;-3.70;99.90;;;;;;4960573;28;20216;-62
2024/01/09 03:58:20;;;;;;;3.17;1.93;;;-4.00;99.90;;;;;;4988204;28;20221;-62
2024/01/09 04:00:47;;;;;;;3.73;1.87;;;-5.40;99.90;;;;;;4999356;28;20200;-62
2024/01/09 04:03:14;;;;;;;2.40;2.00;;;-4.00;99.90;;;;;;4991358;28;20226;-62
2024/01/09 04:05:41;;;;;;;3.43;2.13;;;-4.20;99.90;;;;;;4997814;28;20204;-62
2024/01/09 04:08:08;;;;;;;6.57;1.70;;;-4.30;99.90;;;;;;4995772;28;20215;-62
2024/01/09 04:10:34;;;;;;;3.00;2.23;;;-4.30;99.90;;;;;;4959873;28;20219;-62
2024/01/09 04:13:04;;;;;;;2.60;1.97;;;-4.20;99.90;;;;;;4991105;28;20993;-62
2024/01/09 04:15:32;;;;;;;3.07;1.60;;;-4.30;99.90;;;;;;5002626;28;20229;-62
2024/01/09 04:17:58;;;;;;;4.57;2.07;;;-4.20;99.90;;;;;;4994467;28;20212;-62
2024/01/09 04:20:25;;;;;;;4.47;2.07;;;-4.20;99.90;;;;;;4997889;28;20771;-63
2024/01/09 04:22:52;;;;;;;2.93;2.10;;;-4.40;99.90;;;;;;5003745;28;20231;-62
2024/01/09 04:25:19;;;;;;;4.27;2.90;;;-4.40;99.90;;;;;;4983998;28;20200;-62
2024/01/09 04:27:46;;;;;;;7.50;2.03;;;-4.50;99.90;;;;;;4989433;28;20369;-62
2024/01/09 04:30:14;;;;;;;2.97;2.13;;;-4.50;99.90;;;;;;4983818;28;20833;-62
2024/01/09 04:32:41;;;;;;;3.03;2.30;;;-4.50;99.90;;;;;;4985709;28;20209;-62
2024/01/09 04:35:08;;;;;;;3.17;2.10;;;-4.60;99.90;;;;;;4990493;28;20434;-62
2024/01/09 04:37:34;;;;;;;3.03;2.00;;;-4.60;99.90;;;;;;4995225;28;20205;-62
2024/01/09 04:40:01;;;;;;;5.80;2.60;;;-4.60;99.90;;;;;;4990783;28;20211;-62
2024/01/09 04:42:28;;;;;;;1.70;1.60;;;-4.60;99.90;;;;;;4955723;28;20648;-62
2024/01/09 04:44:55;;;;;;;2.57;1.90;;;-4.60;99.90;;;;;;4978343;28;20213;-62
2024/01/09 04:47:23;;;;;;;3.47;2.43;;;-5.60;99.90;;;;;;4976973;28;20884;-62
2024/01/09 04:49:50;;;;;;;2.73;1.63;;;-4.80;99.90;;;;;;4993651;28;20218;-62
2024/01/09 04:52:17;;;;;;;1.50;1.40;;;-4.80;99.90;;;;;;4991944;28;20254;-62
2024/01/09 04:54:44;;;;;;;5.60;2.07;;;-4.80;99.90;;;;;;4986079;28;20324;-62
2024/01/09 04:57:10;;;;;;;2.50;2.20;;;-5.00;41.80;;;;;;4980540;28;21371;-62
2024/01/09 04:59:37;;;;;;;2.83;1.90;;;-5.00;42.50;;;;;;4954815;28;20397;-62
2024/01/09 05:02:04;;;;;;;5.10;2.53;;;-4.80;46.00;;;;;;4986210;28;20401;-62
2024/01/09 05:04:32;;;;;;;4.07;2.73;;;-4.50;48.90;;;;;;4958415;28;20401;-62
2024/01/09 05:06:59;;;;;;;7.07;2.50;;;-4.80;53.70;;;;;;4983456;28;20214;-62
2024/01/09 05:09:27;;;;;;;3.97;2.90;;;-4.80;53.90;;;;;;4968772;28;20876;-62
2024/01/09 05:11:54;;;;;;;3.13;2.17;;;-4.20;58.60;;;;;;4977255;28;20200;-62
2024/01/09 05:14:20;;;;;;;3.83;1.90;;;-4.70;60.40;;;;;;4938411;28;20203;-62
2024/01/09 05:16:47;;;;;;;3.07;2.27;;;;;;;;;;4975290;28;20210;-62
2024/01/09 05:19:14;;;;;;;2.60;1.90;;;-4.70;60.90;;;;;;4982846;28;20208;-62
2024/01/09 05:21:42;;;;;;;2.73;2.40;;;-4.80;62.10;;;;;;4987201;28;20767;-62
2024/01/09 05:24:09;;;;;;;3.73;2.50;;;-4.70;60.40;;;;;;4975133;28;20227;-62
2024/01/09 05:26:36;;;;;;;3.53;2.27;;;-4.70;60.90;;;;;;4990590;28;20190;-62
2024/01/09 05:29:03;;;;;;;4.40;2.67;;;-4.80;59.90;;;;;;4947680;28;20395;-62
2024/01/09 05:31:30;;;;;;;4.43;2.70;;;-4.80;61.30;;;;;;4980166;28;20208;-62
2024/01/09 05:33:57;;;;;;;3.70;2.03;;;-4.00;60.70;;;;;;4988302;28;20760;-62
2024/01/09 05:36:24;;;;;;;3.17;2.33;;;;;;;;;;4970689;28;20233;-62
2024/01/09 05:38:53;;;;;;;2.97;2.30;;;-4.70;60.60;;;;;;4980597;28;20810;-62
2024/01/09 05:41:21;;;;;;;5.10;2.30;;;-4.90;57.30;;;;;;4977122;28;20246;-61
2024/01/09 05:43:47;;;;;;;3.87;2.47;;;-4.90;58.60;;;;;;4941552;28;20693;-63
2024/01/09 05:46:14;;;;;;;4.00;3.30;;;-5.00;55.90;;;;;;4967532;28;20331;-62
2024/01/09 05:48:42;;;;;;;2.60;2.33;;;-4.90;57.10;;;;;;4990886;28;20789;-62
2024/01/09 05:51:09;;;;;;;5.17;2.80;;;;;;;;;;4983806;28;20528;-62
2024/01/09 05:53:36;;;;;;;4.87;2.43;;;-4.90;57.10;;;;;;4998237;28;20223;-62
2024/01/09 05:56:05;;;;;;;3.50;2.43;;;-4.80;56.20;;;;;;4966116;28;20250;-62
2024/01/09 05:58:33;;;;;;;2.90;2.20;;;-4.90;55.30;;;;;;4975889;28;21033;-62
2024/01/09 06:01:00;;;;;;;4.67;2.63;;;-4.20;56.00;;;;;;4935654;28;20456;-62
2024/01/09 06:03:27;;;;;;;6.13;3.10;;;-4.90;55.50;;;;;;4963702;28;20247;-62
2024/01/09 06:05:54;;;;;;;3.67;2.57;;;-4.70;58.90;;;;;;4962672;28;20232;-62
2024/01/09 06:08:21;;;;;;;9.53;2.80;;;;;;;;;;4989540;28;20237;-62
2024/01/09 06:10:48;;;;;;;4.97;2.50;;;;;;;;;;4984527;28;20707;-62
2024/01/09 06:13:16;;;;;;;3.27;2.53;;;-4.70;54.10;;;;;;4960049;28;20449;-62
2024/01/09 06:15:43;;;;;;;4.80;2.80;;;-4.70;50.40;;;;;;4955486;28;20239;-62
2024/01/09 06:18:10;;;;;;;5.17;2.40;;;-4.80;49.20;;;;;;4978659;28;21153;-62
2024/01/09 06:20:37;;;;;;;3.63;2.43;;;-4.90;46.00;;;;;;4978856;28;20242;-62
2024/01/09 06:23:04;;;;;;;6.57;3.30;;;-3.70;89.00;;;;;;4974389;28;20411;-62
2024/01/09 06:25:31;;;;;;;3.27;2.37;;;-3.50;90.50;;;;;;4991902;28;20331;-62
2024/01/09 06:27:57;;;;;;;8.17;3.37;;;-4.10;99.90;;;;;;4986263;28;20206;-62
2024/01/09 06:30:26;;;;;;;7.33;2.83;;;-4.20;99.90;;;;;;4994398;28;20573;-62
2024/01/09 06:32:52;;;;;;;4.93;2.63;;;-4.30;99.90;;;;;;4955504;28;20207;-62
2024/01/09 06:35:19;;;;;;;3.50;2.17;;;-4.70;99.90;;;;;;4995506;28;20863;-63
2024/01/09 06:37:46;;;;;;;4.00;2.40;;;-4.70;99.90;;;;;;4988961;28;20206;-62
2024/01/09 06:40:13;;;;;;;5.73;3.20;;;-4.20;99.90;;;;;;4996065;28;20199;-63
2024/01/09 06:42:40;;;;;;;4.60;2.90;;;-5.10;99.90;;;;;;4989805;28;20599;-62
2024/01/09 06:45:07;;;;;;;3.63;2.43;;;-5.30;47.30;;;;;;4994606;28;20296;-62
2024/01/09 06:47:36;;;;;;;6.10;2.93;;;-5.20;48.40;;;;;;4965766;28;20232;-62
2024/01/09 06:50:03;;;;;;;4.60;2.87;;;-5.20;54.50;;;;;;4995017;28;20227;-62
2024/01/09 06:52:31;;;;;;;7.67;2.77;;;-5.30;55.70;;;;;;4988911;28;20200;-62
2024/01/09 06:54:58;;;;;;;5.33;2.83;;;-5.40;58.80;;;;;;4992819;28;20196;-62
2024/01/09 06:57:25;;;;;;;6.37;3.30;;;-5.50;60.00;;;;;;4981343;28;20229;-62
2024/01/09 06:59:52;;;;;;;5.03;3.63;;;-5.40;64.30;;;;;;4994178;28;20196;-62
2024/01/09 07:02:20;;;;;;;5.03;3.03;;;-5.50;65.50;;;;;;4996400;28;20851;-62
2024/01/09 07:04:48;;;;;;;8.57;4.17;;;-5.40;66.30;;;;;;4959466;28;20218;-62
2024/01/09 07:07:15;;;;;;;4.47;3.63;;;-5.50;67.60;;;;;;4995606;28;20400;-62
2024/01/09 07:09:42;;;;;;;3.43;2.80;;;-5.40;68.60;;;;;;4987740;28;20208;-62
2024/01/09 07:12:09;;;;;;;4.43;3.10;;;-5.50;70.60;;;;;;4987080;28;21313;-62
2024/01/09 07:14:36;;;;;;;5.07;3.20;;;-5.50;68.80;;;;;;5004946;28;20203;-62
2024/01/09 07:17:04;;;;;;;7.43;4.10;;;-5.50;68.30;;;;;;4994484;28;20746;-62
2024/01/09 07:19:31;;;;;;;5.53;3.50;;;-5.60;67.00;;;;;;4963686;28;20204;-62
2024/01/09 07:21:59;;;;;;;4.37;3.40;;;-5.50;67.30;;;;;;4999034;28;20203;-62
2024/01/09 07:24:26;;;;;;;5.40;3.53;;;-4.90;68.20;;;;;;4991655;28;20255;-62
2024/01/09 07:26:52;;;;;;;4.80;3.93;;;-5.70;67.90;;;;;;5000651;28;20223;-62
2024/01/09 07:29:19;;;;;;;5.93;3.90;;;-5.70;68.40;;;;;;4994433;28;20219;-62
2024/01/09 07:31:47;;;;;;;4.17;3.27;;;;;;;;;;5006770;28;20284;-62
2024/01/09 07:34:14;;;;;;;5.77;3.37;;;-5.60;70.90;;;;;;4965281;28;20946;-62
2024/01/09 07:36:42;;;;;;;7.10;4.03;;;-5.60;71.60;;;;;;5000257;28;20648;-62
2024/01/09 07:39:12;;;;;;;6.87;4.17;;;-5.70;71.80;;;;;;4987704;28;21043;-62
2024/01/09 07:41:39;;;;;;;5.33;3.67;;;-5.70;71.60;;;;;;5000136;28;20225;-62
2024/01/09 07:44:06;;;;;;;8.87;3.70;;;-5.60;76.30;;;;;;4987718;28;20804;-62
2024/01/09 07:46:33;;;;;;;12.03;4.33;;;-5.60;76.40;;;;;;5002676;28;20301;-62
2024/01/09 07:49:00;;;;;;;4.10;3.70;;;-5.60;72.80;;;;;;4994157;28;20309;-62
2024/01/09 07:51:27;;;;;;;6.23;4.07;;;-5.60;73.80;;;;;;4961965;28;20864;-62
2024/01/09 07:53:55;;;;;;;7.47;4.50;;;;;;;;;;4998408;28;20234;-62
2024/01/09 07:56:23;;;;;;;7.07;4.20;;;-4.30;72.70;;;;;;4985070;28;20211;-62
2024/01/09 07:58:50;;;;;;;5.70;3.90;;;-5.60;72.50;;;;;;4981274;28;20360;-62
2024/01/09 08:01:18;;;;;;;6.73;4.10;;;-5.60;73.70;;;;;;4997367;28;20230;-62
2024/01/09 08:03:45;;;;;;;5.87;3.97;;;-5.60;74.50;;;;;;4985201;28;20769;-62
2024/01/09 08:06:13;;;;;;;5.63;3.93;;;-5.00;72.00;;;;;;4959703;28;20596;-62
2024/01/09 08:08:40;;;;;;;4.23;3.47;;;-5.20;73.00;;;;;;5000481;28;20660;-62
2024/01/09 08:11:07;;;;;;;14.60;8.20;;;-5.50;73.50;;;;;;4988016;28;20207;-62
2024/01/09 08:13:35;;;;;;;11.57;7.27;;;-5.40;73.70;;;;;;4997339;28;20214;-62
2024/01/09 08:16:03;;;;;;;40.50;16.07;;;-4.20;74.60;;;;;;4993033;28;20232;-62
2024/01/09 08:18:30;;;;;;;18.63;6.90;;;-5.30;73.90;;;;;;4997998;28;20305;-62
2024/01/09 08:20:58;;;;;;;14.83;7.77;;;-5.40;72.60;;;;;;4952523;28;20222;-62
2024/01/09 08:23:25;;;;;;;12.10;4.93;;;-5.90;72.60;;;;;;4997575;28;20230;-62
2024/01/09 08:25:52;;;;;;;7.33;4.50;;;-5.40;75.50;;;;;;4995003;28;20206;-62
2024/01/09 08:28:19;;;;;;;11.07;5.13;;;-5.30;73.30;;;;;;4988192;28;20208;-62
2024/01/09 08:30:47;;;;;;;8.77;5.53;;;-5.40;75.10;;;;;;4984048;28;20210;-62
2024/01/09 08:33:14;;;;;;;10.87;6.20;;;-5.40;73.30;;;;;;5000456;28;20200;-62
2024/01/09 08:35:43;;;;;;;7.17;4.67;;;;;;;;;;4972119;28;20319;-62
2024/01/09 08:38:11;;;;;;;5.73;3.77;;;-5.20;77.20;;;;;;4998930;28;20274;-62
2024/01/09 08:40:38;;;;;;;7.47;3.97;;;-5.20;79.80;;;;;;4999533;28;20227;-62
2024/01/09 08:43:05;;;;;;;11.87;5.87;;;-5.10;79.20;;;;;;4987929;28;20960;-62
2024/01/09 08:45:32;;;;;;;8.93;5.20;;;-5.10;80.70;;;;;;4990011;28;20608;-62
2024/01/09 08:48:01;;;;;;;10.47;6.37;;;-5.10;80.40;;;;;;4993468;28;20219;-62
2024/01/09 08:50:27;;;;;;;9.00;5.60;;;-5.60;79.50;;;;;;4998659;28;20208;-62
2024/01/09 08:52:55;;;;;;;18.77;6.10;;;-3.80;83.40;;;;;;4962169;28;20327;-62
2024/01/09 08:55:22;;;;;;;9.20;5.60;;;-5.00;80.90;;;;;;4997298;28;20349;-62
2024/01/09 08:57:49;;;;;;;9.73;4.40;;;-4.90;83.70;;;;;;4998320;28;20235;-62
2024/01/09 09:00:17;;;;;;;9.40;4.60;;;-5.00;84.40;;;;;;4979528;28;20210;-63
2024/01/09 09:02:44;;;;;;;7.53;5.10;;;-5.00;86.70;;;;;;4999714;28;20200;-62
2024/01/09 09:05:12;;;;;;;12.40;5.53;;;-4.90;87.20;;;;;;4999313;28;20227;-62
2024/01/09 09:07:39;;;;;;;7.20;4.67;;;-4.80;86.20;;;;;;4953720;28;20206;-62
2024/01/09 09:10:07;;;;;;;8.60;4.20;;;-4.80;87.10;;;;;;4992041;28;20194;-62
2024/01/09 09:12:34;;;;;;;6.00;4.10;;;-4.70;85.70;;;;;;4995778;28;20207;-62
2024/01/09 09:15:02;;;;;;;4.67;3.77;;;-4.70;85.60;;;;;;4986237;28;20206;-62
2024/01/09 09:17:30;;;;;;;8.57;4.10;;;-4.60;82.80;;;;;;4982714;28;20928;-62
2024/01/09 09:19:57;;;;;;;7.03;4.30;;;-4.40;80.40;;;;;;4980308;28;20321;-62
2024/01/09 09:22:28;;;;;;;6.63;3.83;;;-4.50;75.80;;;;;;4960251;28;21152;-62
2024/01/09 09:24:55;;;;;;;8.20;4.20;;;-4.50;99.90;;;;;;4996501;28;20794;-62
2024/01/09 09:27:22;;;;;;;8.30;4.67;;;-4.30;99.90;;;;;;4987323;28;20903;-62
2024/01/09 09:29:52;;;;;;;6.60;3.90;;;-4.30;99.90;;;;;;4996378;28;20204;-62
2024/01/09 09:32:19;;;;;;;5.67;3.97;;;-4.20;99.90;;;;;;4979278;28;20622;-62
2024/01/09 09:34:46;;;;;;;8.90;4.13;;;-4.20;99.90;;;;;;4993294;28;20295;-62
2024/01/09 09:37:13;;;;;;;8.43;4.00;;;-4.10;99.90;;;;;;4956916;28;20338;-62
2024/01/09 09:39:41;;;;;;;5.33;3.67;;;-3.50;99.90;;;;;;4996919;28;20215;-62
2024/01/09 09:42:10;;;;;;;8.47;4.00;;;-3.90;99.90;;;;;;4982013;28;23116;-63
2024/01/09 09:44:38;;;;;;;8.47;4.07;;;-3.90;99.90;;;;;;4996744;28;20243;-62
2024/01/09 09:47:06;;;;;;;5.10;4.00;;;-3.90;99.90;;;;;;4976913;28;20200;-62
2024/01/09 09:49:37;;;;;;;13.10;5.10;;;-3.90;99.90;;;;;;4998813;28;21808;-62
2024/01/09 09:52:05;;;;;;;6.30;4.20;;;-3.80;99.90;;;;;;4967728;28;20384;-62
2024/01/09 09:54:33;;;;;;;5.80;3.87;;;-3.40;99.90;;;;;;4996098;28;20200;-62
2024/01/09 09:57:01;;;;;;;5.47;3.70;;;-3.70;99.90;;;;;;4990378;28;20292;-62
2024/01/09 09:59:28;;;;;;;6.17;4.10;;;;;;;;;;4986584;28;20357;-62
2024/01/09 10:01:56;;;;;;;7.50;4.37;;;-3.60;99.90;;;;;;4987984;28;20554;-62
2024/01/09 10:04:30;;;;;;;6.73;4.23;;;-4.80;99.90;;;;;;4995306;28;21076;-63
2024/01/09 10:06:58;;;;;;;6.27;4.20;;;-3.50;99.90;;;;;;4994821;28;20203;-62
2024/01/09 10:09:33;;;;;;;6.43;4.03;;;-3.50;99.90;;;;;;4955031;28;20323;-62
2024/01/09 10:12:01;;;;;;;8.00;3.80;;;-3.00;99.90;;;;;;4996247;28;20371;-62
2024/01/09 10:14:28;;;;;;;6.47;3.60;;;-3.40;99.90;;;;;;4996494;28;20196;-62
2024/01/09 10:16:56;;;;;;;4.47;3.27;;;-3.40;99.90;;;;;;4990394;28;20219;-62
2024/01/09 10:19:23;;;;;;;5.37;3.83;;;-3.30;99.90;;;;;;4988953;28;20248;-62
2024/01/09 10:21:50;;;;;;;5.63;3.73;;;-3.30;99.90;;;;;;4993576;28;20298;-62
2024/01/09 10:24:18;;;;;;;6.87;4.13;;;-3.20;99.90;;;;;;4962580;28;21778;-62
2024/01/09 10:26:45;;;;;;;5.67;3.53;;;-3.20;99.90;;;;;;4995981;28;20750;-62
2024/01/09 10:29:13;;;;;;;11.13;4.20;;;-3.20;99.90;;;;;;4999753;28;20199;-62
2024/01/09 10:31:44;;;;;;;6.93;3.60;;;-3.10;99.90;;;;;;4991750;28;20212;-62
2024/01/09 10:34:11;;;;;;;5.43;3.70;;;-3.00;99.90;;;;;;4986148;28;20488;-62
2024/01/09 10:36:38;;;;;;;8.73;3.60;;;-3.00;99.90;;;;;;4999340;28;20591;-63
2024/01/09 10:39:06;;;;;;;3.93;2.93;;;-2.90;99.90;;;;;;4965500;28;20195;-63
2024/01/09 10:41:33;;;;;;;4.33;3.23;;;-2.90;99.90;;;;;;5003241;28;20301;-62
2024/01/09 10:44:01;;;;;;;6.27;3.50;;;-2.70;99.90;;;;;;4995194;28;20218;-63
2024/01/09 10:46:31;;;;;;;5.43;3.40;;;-2.80;99.90;;;;;;5000612;28;20482;-62
2024/01/09 10:49:00;;;;;;;6.20;3.67;;;-2.80;99.90;;;;;;4991206;28;20320;-62
2024/01/09 10:51:27;;;;;;;4.87;3.60;;;-2.80;99.90;;;;;;4990389;28;20342;-62
2024/01/09 10:53:56;;;;;;;8.33;4.20;;;-2.70;99.90;;;;;;4989381;28;20272;-62
2024/01/09 10:56:23;;;;;;;6.03;3.43;;;-2.70;99.90;;;;;;4976619;28;20289;-63
2024/01/09 10:58:51;;;;;;;4.47;3.20;;;-2.60;99.90;;;;;;4995744;28;20604;-62
2024/01/09 11:01:18;;;;;;;5.60;3.13;;;-2.50;99.90;;;;;;4997195;28;20667;-62
2024/01/09 11:03:47;;;;;;;4.43;3.20;;;-1.50;99.90;;;;;;4984387;28;20536;-62
2024/01/09 11:06:17;;;;;;;5.53;3.00;;;-2.40;99.90;;;;;;4983668;28;21195;-62
2024/01/09 11:08:48;;;;;;;6.77;3.00;;;-2.40;99.90;;;;;;5002615;28;20217;-62
2024/01/09 11:11:18;;;;;;;4.77;3.00;;;-2.40;99.90;;;;;;4964436;28;20222;-62
2024/01/09 11:13:48;;;;;;;3.43;2.47;;;-2.30;99.90;;;;;;5000397;28;20223;-62
2024/01/09 11:16:18;;;;;;;4.90;2.90;;;-2.10;99.90;;;;;;4991271;28;20350;-63
2024/01/09 11:18:47;;;;;;;4.40;2.67;;;-2.30;99.90;;;;;;4981227;28;20584;-62
2024/01/09 11:21:14;;;;;;;2.50;1.93;;;-2.70;99.90;;;;;;4981889;28;20222;-62
2024/01/09 11:23:57;;;;;;;3.43;2.50;;;-2.30;99.90;;;;;;4997305;28;20200;-62
2024/01/09 11:26:26;;;;;;;6.03;3.00;;;-2.30;99.90;;;;;;4953392;28;20704;-62
2024/01/09 11:28:53;;;;;;;2.33;2.10;;;-2.80;99.90;;;;;;4994089;28;20192;-62
2024/01/09 11:31:21;;;;;;;2.83;2.10;;;-2.20;99.90;;;;;;4991089;28;20723;-62
2024/01/09 11:33:51;;;;;;;3.20;2.60;;;-2.10;99.90;;;;;;4987518;28;20288;-62
2024/01/09 11:36:23;;;;;;;4.03;2.63;;;-2.10;99.90;;;;;;4978756;28;20549;-62
2024/01/09 11:38:53;;;;;;;4.53;2.30;;;-2.00;99.90;;;;;;4996445;28;20684;-62
2024/01/09 11:41:22;;;;;;;4.43;2.77;;;-2.00;99.90;;;;;;4956997;28;20670;-62
2024/01/09 11:44:03;;;;;;;6.37;2.93;;;-1.90;99.90;;;;;;4997323;28;20534;-62
2024/01/09 11:46:32;;;;;;;3.03;1.97;;;-1.90;99.90;;;;;;5000562;28;20232;-63
2024/01/09 11:49:01;;;;;;;3.60;2.60;;;-1.80;99.90;;;;;;4991615;28;20202;-63
2024/01/09 11:51:30;;;;;;;2.90;2.30;;;-1.80;99.90;;;;;;4983830;28;20206;-62
2024/01/09 11:53:59;;;;;;;3.67;2.23;;;-1.80;99.90;;;;;;4996560;28;20203;-63
2024/01/09 11:56:26;;;;;;;3.63;2.63;;;-1.80;99.90;;;;;;5000524;28;20500;-63
2024/01/09 11:58:54;;;;;;;5.60;2.50;;;-1.80;99.90;;;;;;4962313;28;20607;-62
2024/01/09 12:01:22;;;;;;;6.57;2.73;;;-1.80;99.90;;;;;;4997946;28;20194;-62
2024/01/09 12:03:53;;;;;;;3.80;2.30;;;-1.70;99.90;;;;;;4999970;28;20291;-62
2024/01/09 12:06:22;;;;;;;2.77;2.23;;;-1.60;99.90;;;;;;4992623;28;20222;-62
2024/01/09 12:08:49;;;;;;;3.47;1.80;;;-1.60;99.90;;;;;;4966900;28;20406;-62
2024/01/09 12:11:16;;;;;;;2.80;2.23;;;-1.60;99.90;;;;;;4987320;28;20223;-62
2024/01/09 12:13:44;;;;;;;6.00;2.60;;;-1.30;99.90;;;;;;4948301;28;21564;-62
2024/01/09 12:16:18;;;;;;;3.37;2.00;;;-0.90;99.90;;;;;;4992568;28;20203;-62
2024/01/09 12:18:55;;;;;;;3.77;2.20;;;-1.40;99.90;;;;;;4996322;28;20287;-62
2024/01/09 12:21:26;;;;;;;5.97;2.83;;;-1.50;99.90;;;;;;4986818;28;21193;-62
2024/01/09 12:23:55;;;;;;;4.10;1.97;;;-1.50;99.90;;;;;;4989177;28;20291;-62
2024/01/09 12:26:23;;;;;;;3.43;2.20;;;-0.40;99.90;;;;;;4991771;28;20269;-62
2024/01/09 12:28:51;;;;;;;3.87;2.47;;;-1.40;99.90;;;;;;4945116;28;20237;-62
2024/01/09 12:31:19;;;;;;;3.23;2.33;;;-1.40;99.90;;;;;;4997887;28;20783;-62
2024/01/09 12:33:46;;;;;;;2.53;1.93;;;-1.90;99.90;;;;;;4996077;28;20225;-62
2024/01/09 12:36:13;;;;;;;2.33;1.80;;;-1.30;99.90;;;;;;4989189;28;20213;-63
2024/01/09 12:38:41;;;;;;;2.37;1.90;;;-1.30;99.90;;;;;;4990211;28;20853;-63
2024/01/09 12:41:09;;;;;;;5.50;3.10;;;-1.30;99.90;;;;;;5001521;28;20757;-62
2024/01/09 12:43:36;;;;;;;3.33;2.10;;;-0.80;99.90;;;;;;4964100;28;20217;-63
2024/01/09 12:46:05;;;;;;;2.30;1.83;;;-1.20;99.90;;;;;;4999303;28;20724;-63
2024/01/09 12:48:32;;;;;;;6.90;2.70;;;-1.20;99.90;;;;;;4995192;28;20212;-62
2024/01/09 12:51:00;;;;;;;4.97;2.37;;;-1.20;99.90;;;;;;4993525;28;20204;-62
2024/01/09 12:53:29;;;;;;;8.17;4.17;;;-1.20;99.90;;;;;;4989045;28;21188;-62